Time;durP1;ratioP1;P1;durP2;ratioP2;P2;SDS_P1;SDS_P2;PMS_P1;PMS_P2;Temp;Humidity;BMP_temperature;BMP_pressure;BME280_temperature;BME280_humidity;BME280_pressure;Samples;Min_cycle;Max_cycle;Signal;HPM_P1;HPM_P2
2023/06/11 00:01:50;;;;;;;;;;;22.80;70.60;;;;;;4987193;28;20021;-68
2023/06/11 00:04:19;;;;;;;;;;;22.80;70.60;;;;;;4986904;28;20000;-68
2023/06/11 00:06:45;;;;;;;;;;;22.80;70.50;;;;;;5025377;28;20363;-68
2023/06/11 00:09:11;;;;;;;;;;;22.70;70.50;;;;;;5000027;28;19914;-68
2023/06/11 00:11:41;;;;;;;;;;;22.70;70.50;;;;;;4976433;28;19925;-68
2023/06/11 00:14:08;;;;;;;;;;;22.70;70.60;;;;;;4967542;28;20306;-68
2023/06/11 00:16:34;;;;;;;;;;;22.60;70.60;;;;;;4967569;28;19917;-68
2023/06/11 00:18:59;;;;;;;;;;;22.60;70.70;;;;;;4967753;28;19945;-68
2023/06/11 00:21:25;;;;;;;;;;;22.60;70.80;;;;;;4967836;28;20019;-68
2023/06/11 00:23:51;;;;;;;;;;;22.50;70.70;;;;;;4967701;28;19929;-68
2023/06/11 00:26:16;;;;;;;;;;;22.50;70.90;;;;;;4967632;28;20386;-68
2023/06/11 00:28:41;;;;;;;;;;;22.50;71.00;;;;;;4967573;28;20379;-68
2023/06/11 00:31:07;;;;;;;;;;;22.40;70.80;;;;;;4976717;28;19917;-68
2023/06/11 00:33:33;;;;;;;;;;;22.50;70.90;;;;;;4986896;28;20001;-68
2023/06/11 00:35:58;;;;;;;;;;;22.40;70.90;;;;;;4986968;28;19910;-68
2023/06/11 00:38:24;;;;;;;;;;;22.40;71.00;;;;;;4976943;28;20271;-68
2023/06/11 00:40:49;;;;;;;;;;;22.30;71.10;;;;;;4967310;28;20028;-68
2023/06/11 00:43:17;;;;;;;;;;;22.30;71.40;;;;;;4967541;28;19919;-68
2023/06/11 00:45:44;;;;;;;;;;;22.30;70.90;;;;;;4990328;28;19914;-68
2023/06/11 00:48:09;;;;;;;;;;;22.30;71.10;;;;;;4986815;28;19914;-68
2023/06/11 00:50:44;;;;;;;;;;;22.30;71.10;;;;;;4986691;28;20009;-68
2023/06/11 00:53:10;;;;;;;;;;;22.20;71.40;;;;;;4987056;28;19921;-68
2023/06/11 00:55:36;;;;;;;;;;;22.20;71.50;;;;;;4986330;28;19921;-68
2023/06/11 00:58:02;;;;;;;;;;;22.20;71.60;;;;;;4986087;28;19910;-68
2023/06/11 01:00:27;;;;;;;;;;;22.10;71.50;;;;;;4986533;28;19917;-68
2023/06/11 01:02:59;;;;;;;;;;;22.10;71.60;;;;;;4986748;28;20280;-68
2023/06/11 01:05:25;;;;;;;;;;;22.10;71.60;;;;;;4986250;28;20361;-68
2023/06/11 01:07:52;;;;;;;;;;;22.10;71.70;;;;;;4981256;28;19925;-68
2023/06/11 01:10:18;;;;;;;;;;;22.00;72.40;;;;;;4967275;28;19911;-68
2023/06/11 01:12:44;;;;;;;;;;;22.00;72.10;;;;;;4970330;28;19945;-68
2023/06/11 01:15:14;;;;;;;;;;;21.90;71.70;;;;;;4970350;28;19921;-68
2023/06/11 01:17:43;;;;;;;;;;;21.90;71.80;;;;;;4972053;28;19921;-68
2023/06/11 01:20:16;;;;;;;;;;;21.90;72.00;;;;;;5086084;28;19912;-68
2023/06/11 01:22:42;;;;;;;;;;;21.90;71.90;;;;;;5092884;28;20269;-68
2023/06/11 01:25:24;;;;;;;;;;;21.90;72.00;;;;;;5091306;28;19908;-68
2023/06/11 01:27:49;;;;;;;;;;;21.80;72.10;;;;;;5092597;28;20280;-68
2023/06/11 01:30:17;;;;;;;;;;;21.80;72.30;;;;;;5081310;28;19912;-68
2023/06/11 01:32:45;;;;;;;;;;;21.80;72.30;;;;;;4980475;28;19921;-68
2023/06/11 01:35:12;;;;;;;;;;;21.80;72.30;;;;;;4969571;28;19914;-68
2023/06/11 01:37:38;;;;;;;;;;;21.70;72.30;;;;;;4969421;28;19910;-68
2023/06/11 01:40:04;;;;;;;;;;;21.70;72.40;;;;;;4969155;28;19911;-68
2023/06/11 01:42:30;;;;;;;;;;;21.70;72.40;;;;;;4988087;28;19914;-68
2023/06/11 01:44:55;;;;;;;;;;;21.60;72.30;;;;;;5008958;28;20390;-68
2023/06/11 01:47:22;;;;;;;;;;;21.70;72.40;;;;;;5008877;28;19979;-68
2023/06/11 01:49:47;;;;;;;;;;;21.60;72.60;;;;;;5008887;28;19986;-67
2023/06/11 01:52:12;;;;;;;;;;;21.60;72.90;;;;;;5009059;28;19987;-68
2023/06/11 01:54:38;;;;;;;;;;;21.60;73.00;;;;;;5007724;28;20493;-68
2023/06/11 01:57:04;;;;;;;;;;;21.50;73.00;;;;;;4991108;28;19917;-68
2023/06/11 01:59:30;;;;;;;;;;;21.50;73.00;;;;;;4989059;28;19929;-68
2023/06/11 02:01:56;;;;;;;;;;;21.50;72.90;;;;;;4989088;28;20271;-68
2023/06/11 02:04:22;;;;;;;;;;;21.50;73.10;;;;;;4989088;28;19994;-68
2023/06/11 02:06:48;;;;;;;;;;;21.40;73.10;;;;;;4988966;28;19967;-68
2023/06/11 02:09:14;;;;;;;;;;;21.40;73.20;;;;;;4972459;28;19915;-68
2023/06/11 02:11:39;;;;;;;;;;;21.40;73.30;;;;;;4969767;28;19914;-68
2023/06/11 02:14:05;;;;;;;;;;;21.40;73.10;;;;;;4969221;28;19914;-68
2023/06/11 02:16:30;;;;;;;;;;;21.30;73.40;;;;;;4969186;28;19936;-68
2023/06/11 02:18:56;;;;;;;;;;;21.30;73.50;;;;;;4967952;28;19929;-68
2023/06/11 02:21:21;;;;;;;;;;;21.30;73.30;;;;;;4968457;28;19926;-68
2023/06/11 02:23:48;;;;;;;;;;;21.30;73.50;;;;;;4968493;28;19933;-68
2023/06/11 02:26:13;;;;;;;;;;;21.30;73.70;;;;;;4969667;28;20279;-68
2023/06/11 02:28:39;;;;;;;;;;;21.20;73.40;;;;;;4969304;28;19925;-68
2023/06/11 02:31:04;;;;;;;;;;;21.20;73.60;;;;;;4978037;28;19917;-68
2023/06/11 02:33:30;;;;;;;;;;;21.20;73.70;;;;;;4988609;28;20310;-68
2023/06/11 02:35:55;;;;;;;;;;;21.10;73.80;;;;;;4987046;28;19929;-68
2023/06/11 02:38:21;;;;;;;;;;;21.10;73.80;;;;;;5002189;28;19933;-69
2023/06/11 02:40:46;;;;;;;;;;;21.10;73.90;;;;;;4988589;28;19914;-68
2023/06/11 02:43:12;;;;;;;;;;;21.10;73.90;;;;;;4988835;28;20258;-68
2023/06/11 02:45:37;;;;;;;;;;;21.00;74.50;;;;;;4986939;28;19914;-68
2023/06/11 02:48:03;;;;;;;;;;;21.10;74.00;;;;;;4988509;28;19914;-68
2023/06/11 02:50:28;;;;;;;;;;;21.00;74.00;;;;;;4988385;28;19990;-68
2023/06/11 02:52:54;;;;;;;;;;;21.00;74.60;;;;;;4988470;28;19914;-68
2023/06/11 02:55:19;;;;;;;;;;;21.00;74.30;;;;;;4986376;28;19932;-68
2023/06/11 02:57:45;;;;;;;;;;;20.90;74.10;;;;;;4984391;28;19914;-68
2023/06/11 03:00:11;;;;;;;;;;;20.90;74.30;;;;;;4988028;28;20557;-68
2023/06/11 03:02:36;;;;;;;;;;;20.90;74.30;;;;;;4988431;28;20339;-68
2023/06/11 03:05:02;;;;;;;;;;;20.90;74.20;;;;;;4988158;28;19920;-68
2023/06/11 03:07:27;;;;;;;;;;;20.90;74.50;;;;;;4985287;28;20586;-68
2023/06/11 03:09:53;;;;;;;;;;;20.80;74.20;;;;;;4968822;28;19921;-68
2023/06/11 03:12:20;;;;;;;;;;;20.80;74.30;;;;;;4967637;28;19917;-68
2023/06/11 03:14:45;;;;;;;;;;;20.80;74.40;;;;;;4989899;28;19921;-68
2023/06/11 03:17:11;;;;;;;;;;;20.80;74.50;;;;;;5090403;28;19916;-68
2023/06/11 03:19:36;;;;;;;;;;;20.70;74.50;;;;;;5090223;28;20327;-68
2023/06/11 03:22:02;;;;;;;;;;;20.70;74.60;;;;;;5090258;28;20007;-68
2023/06/11 03:24:27;;;;;;;;;;;20.70;74.60;;;;;;5090568;28;19912;-68
2023/06/11 03:26:53;;;;;;;;;;;20.70;75.30;;;;;;5090132;28;20312;-68
2023/06/11 03:29:18;;;;;;;;;;;20.70;74.70;;;;;;5088808;28;19908;-68
2023/06/11 03:31:44;;;;;;;;;;;20.70;74.60;;;;;;5014948;28;19913;-68
2023/06/11 03:34:10;;;;;;;;;;;20.70;74.80;;;;;;4987173;28;19913;-68
2023/06/11 03:36:36;;;;;;;;;;;20.70;74.70;;;;;;4987583;28;20005;-68
2023/06/11 03:39:02;;;;;;;;;;;20.70;74.80;;;;;;4972592;28;19914;-68
2023/06/11 03:41:27;;;;;;;;;;;20.60;74.80;;;;;;4966961;28;19921;-68
2023/06/11 03:43:53;;;;;;;;;;;20.60;74.70;;;;;;4968043;28;19915;-67
2023/06/11 03:46:21;;;;;;;;;;;20.60;74.80;;;;;;4968452;28;20321;-68
2023/06/11 03:48:46;;;;;;;;;;;20.60;74.90;;;;;;4968021;28;20427;-68
2023/06/11 03:51:12;;;;;;;;;;;20.50;74.90;;;;;;4980550;28;19921;-68
2023/06/11 03:53:37;;;;;;;;;;;20.50;74.90;;;;;;5007071;28;19925;-68
2023/06/11 03:56:03;;;;;;;;;;;20.50;75.00;;;;;;4997562;28;19910;-68
2023/06/11 03:58:28;;;;;;;;;;;20.50;75.10;;;;;;4987121;28;19910;-68
2023/06/11 04:00:54;;;;;;;;;;;20.50;75.10;;;;;;4987257;28;19914;-68
2023/06/11 04:03:19;;;;;;;;;;;20.50;75.10;;;;;;4987668;28;19914;-68
2023/06/11 04:05:45;;;;;;;;;;;20.50;75.10;;;;;;4986898;28;20279;-68
2023/06/11 04:08:11;;;;;;;;;;;20.40;75.10;;;;;;4979079;28;19914;-68
2023/06/11 04:10:36;;;;;;;;;;;20.40;75.00;;;;;;4967832;28;19914;-68
2023/06/11 04:13:02;;;;;;;;;;;20.40;75.10;;;;;;4968312;28;20462;-68
2023/06/11 04:15:27;;;;;;;;;;;20.40;74.90;;;;;;4967621;28;19993;-68
2023/06/11 04:17:53;;;;;;;;;;;20.40;75.30;;;;;;4967962;28;19914;-68
2023/06/11 04:20:18;;;;;;;;;;;20.40;75.20;;;;;;4967821;28;20055;-67
2023/06/11 04:22:44;;;;;;;;;;;20.40;75.30;;;;;;4967780;28;19922;-68
2023/06/11 04:25:11;;;;;;;;;;;20.30;75.10;;;;;;4966419;28;19910;-68
2023/06/11 04:27:37;;;;;;;;;;;20.30;75.30;;;;;;4967506;28;20020;-68
2023/06/11 04:30:03;;;;;;;;;;;20.30;75.10;;;;;;4967947;28;19993;-67
2023/06/11 04:32:34;;;;;;;;;;;20.30;75.30;;;;;;4987205;28;19910;-68
2023/06/11 04:35:01;;;;;;;;;;;20.30;75.40;;;;;;4984722;28;19910;-68
2023/06/11 04:37:29;;;;;;;;;;;20.30;75.40;;;;;;4999795;28;19917;-68
2023/06/11 04:39:56;;;;;;;;;;;20.30;75.50;;;;;;4986893;28;20338;-68
2023/06/11 04:42:24;;;;;;;;;;;20.30;75.50;;;;;;4987081;28;19922;-67
2023/06/11 04:44:50;;;;;;;;;;;20.30;75.50;;;;;;4986747;28;20663;-68
2023/06/11 04:47:16;;;;;;;;;;;20.30;75.60;;;;;;4990881;28;20006;-68
2023/06/11 04:49:43;;;;;;;;;;;20.20;75.50;;;;;;4993207;28;20624;-68
2023/06/11 04:52:09;;;;;;;;;;;20.20;75.50;;;;;;4993195;28;19967;-67
2023/06/11 04:54:34;;;;;;;;;;;20.20;75.60;;;;;;4993255;28;20007;-68
2023/06/11 04:57:00;;;;;;;;;;;20.20;75.60;;;;;;5067497;28;20369;-68
2023/06/11 04:59:26;;;;;;;;;;;20.20;75.60;;;;;;5095441;28;19923;-68
2023/06/11 05:01:53;;;;;;;;;;;20.20;75.40;;;;;;5016125;28;20005;-68
2023/06/11 05:04:19;;;;;;;;;;;20.20;75.60;;;;;;4993058;28;20369;-68
2023/06/11 05:06:45;;;;;;;;;;;20.20;75.70;;;;;;4993022;28;19999;-68
2023/06/11 05:09:14;;;;;;;;;;;20.20;75.20;;;;;;4976692;28;20248;-68
2023/06/11 05:11:41;;;;;;;;;;;20.20;75.50;;;;;;4973746;28;20629;-68
2023/06/11 05:14:07;;;;;;;;;;;20.20;75.60;;;;;;4973289;28;19910;-68
2023/06/11 05:16:32;;;;;;;;;;;20.20;75.70;;;;;;4973418;28;19917;-68
2023/06/11 05:18:58;;;;;;;;;;;20.20;75.70;;;;;;4978405;28;19910;-67
2023/06/11 05:21:23;;;;;;;;;;;20.20;75.70;;;;;;5094824;28;19996;-68
2023/06/11 05:23:50;;;;;;;;;;;20.20;75.80;;;;;;5095319;28;19916;-68
2023/06/11 05:26:18;;;;;;;;;;;20.20;75.70;;;;;;5095224;28;19912;-67
2023/06/11 05:28:44;;;;;;;;;;;20.20;75.60;;;;;;5095093;28;20034;-68
2023/06/11 05:31:12;;;;;;;;;;;20.10;75.50;;;;;;5045750;28;20025;-68
2023/06/11 05:33:38;;;;;;;;;;;20.20;75.70;;;;;;4992520;28;19937;-68
2023/06/11 05:36:04;;;;;;;;;;;20.10;75.60;;;;;;4991223;28;20347;-68
2023/06/11 05:38:31;;;;;;;;;;;20.20;75.80;;;;;;4981105;28;21439;-68
2023/06/11 05:40:57;;;;;;;;;;;20.20;75.70;;;;;;4973342;28;19963;-68
2023/06/11 05:43:23;;;;;;;;;;;20.20;75.80;;;;;;4973295;28;20651;-68
2023/06/11 05:45:49;;;;;;;;;;;20.10;75.70;;;;;;4971595;28;20363;-68
2023/06/11 05:48:15;;;;;;;;;;;20.10;75.50;;;;;;4976025;28;19922;-68
2023/06/11 05:50:40;;;;;;;;;;;20.20;75.60;;;;;;4991921;28;20321;-68
2023/06/11 05:53:06;;;;;;;;;;;20.20;75.50;;;;;;4992271;28;19921;-68
2023/06/11 05:55:31;;;;;;;;;;;20.20;75.40;;;;;;4990172;28;19914;-68
2023/06/11 05:57:57;;;;;;;;;;;20.20;75.10;;;;;;4988618;28;20445;-68
2023/06/11 06:00:22;;;;;;;;;;;20.20;75.30;;;;;;4988786;28;19920;-68
2023/06/11 06:02:48;;;;;;;;;;;20.20;75.40;;;;;;5003731;28;19921;-68
2023/06/11 06:05:15;;;;;;;;;;;20.20;75.80;;;;;;4997683;28;20305;-68
2023/06/11 06:07:41;;;;;;;;;;;20.20;75.30;;;;;;4988854;28;19975;-68
2023/06/11 06:10:06;;;;;;;;;;;20.20;76.00;;;;;;4989155;28;19918;-68
2023/06/11 06:12:32;;;;;;;;;;;20.20;75.20;;;;;;4996126;28;19944;-68
2023/06/11 06:14:57;;;;;;;;;;;20.20;75.10;;;;;;5008514;28;19918;-68
2023/06/11 06:17:23;;;;;;;;;;;20.20;75.20;;;;;;5007777;28;20339;-68
2023/06/11 06:19:48;;;;;;;;;;;20.20;75.30;;;;;;5008377;28;19916;-68
2023/06/11 06:22:16;;;;;;;;;;;20.20;75.20;;;;;;5008360;28;19956;-68
2023/06/11 06:24:41;;;;;;;;;;;20.20;75.20;;;;;;5008570;28;19914;-68
2023/06/11 06:27:07;;;;;;;;;;;20.20;75.10;;;;;;5008282;28;19910;-68
2023/06/11 06:29:32;;;;;;;;;;;20.30;75.20;;;;;;5008293;28;20304;-68
2023/06/11 06:31:58;;;;;;;;;;;20.30;75.20;;;;;;4990880;28;19921;-68
2023/06/11 06:34:25;;;;;;;;;;;20.30;75.00;;;;;;4988669;28;19914;-68
2023/06/11 06:36:52;;;;;;;;;;;20.30;75.10;;;;;;4988528;28;19914;-68
2023/06/11 06:39:17;;;;;;;;;;;20.30;74.80;;;;;;5003341;28;19910;-68
2023/06/11 06:41:43;;;;;;;;;;;20.30;74.90;;;;;;4988876;28;19980;-68
2023/06/11 06:44:08;;;;;;;;;;;20.30;74.90;;;;;;4988503;28;19914;-68
2023/06/11 06:46:34;;;;;;;;;;;20.40;74.90;;;;;;4988403;28;19957;-68
2023/06/11 06:48:59;;;;;;;;;;;20.40;74.80;;;;;;4988480;28;19978;-67
2023/06/11 06:51:25;;;;;;;;;;;20.40;74.70;;;;;;4988703;28;20293;-68
2023/06/11 06:53:50;;;;;;;;;;;20.40;74.70;;;;;;4988396;28;19914;-68
2023/06/11 06:56:17;;;;;;;;;;;20.40;74.60;;;;;;4982396;28;19918;-67
2023/06/11 06:58:42;;;;;;;;;;;20.40;74.60;;;;;;4987882;28;19914;-67
2023/06/11 07:01:08;;;;;;;;;;;20.50;74.50;;;;;;4988232;28;19984;-67
2023/06/11 07:03:34;;;;;;;;;;;20.50;74.50;;;;;;4988027;28;19910;-67
2023/06/11 07:05:59;;;;;;;;;;;20.50;74.40;;;;;;4988102;28;19917;-68
2023/06/11 07:08:26;;;;;;;;;;;20.50;74.30;;;;;;4991207;28;19913;-68
2023/06/11 07:10:56;;;;;;;;;;;20.50;74.30;;;;;;5007873;28;19938;-67
2023/06/11 07:13:22;;;;;;;;;;;20.50;74.20;;;;;;4997264;28;19917;-68
2023/06/11 07:15:47;;;;;;;;;;;20.60;74.20;;;;;;4987520;28;19940;-68
2023/06/11 07:18:13;;;;;;;;;;;20.60;74.20;;;;;;4987723;28;20359;-68
2023/06/11 07:20:39;;;;;;;;;;;20.60;74.20;;;;;;4987277;28;20435;-68
2023/06/11 07:23:05;;;;;;;;;;;20.60;74.00;;;;;;4987584;28;19932;-68
2023/06/11 07:25:30;;;;;;;;;;;20.60;74.00;;;;;;4987248;28;19993;-67
2023/06/11 07:27:56;;;;;;;;;;;20.60;73.90;;;;;;4987355;28;19921;-67
2023/06/11 07:30:22;;;;;;;;;;;20.70;73.90;;;;;;4985949;28;19914;-67
2023/06/11 07:32:48;;;;;;;;;;;20.70;73.90;;;;;;4987875;28;19910;-67
2023/06/11 07:35:13;;;;;;;;;;;20.70;73.70;;;;;;4987664;28;20050;-68
2023/06/11 07:37:39;;;;;;;;;;;20.70;73.80;;;;;;4987544;28;19914;-68
2023/06/11 07:40:05;;;;;;;;;;;20.80;73.60;;;;;;5072206;28;19912;-67
2023/06/11 07:42:30;;;;;;;;;;;20.80;73.80;;;;;;5088205;28;19916;-67
2023/06/11 07:44:56;;;;;;;;;;;20.80;73.80;;;;;;5089604;28;20266;-67
2023/06/11 07:47:21;;;;;;;;;;;20.80;73.50;;;;;;5089736;28;19919;-67
2023/06/11 07:49:47;;;;;;;;;;;20.90;73.40;;;;;;5089827;28;19908;-68
2023/06/11 07:52:12;;;;;;;;;;;20.90;73.30;;;;;;5088528;28;19912;-67
2023/06/11 07:54:38;;;;;;;;;;;20.90;73.30;;;;;;5089740;28;19955;-68
2023/06/11 07:57:04;;;;;;;;;;;21.00;73.20;;;;;;5000776;28;20378;-68
2023/06/11 07:59:30;;;;;;;;;;;21.00;73.10;;;;;;4989384;28;19917;-67
2023/06/11 08:01:55;;;;;;;;;;;21.00;73.10;;;;;;4987419;28;20414;-67
2023/06/11 08:04:21;;;;;;;;;;;21.10;73.10;;;;;;4987305;28;20489;-67
2023/06/11 08:06:46;;;;;;;;;;;21.10;73.50;;;;;;4987263;28;20000;-67
2023/06/11 08:09:12;;;;;;;;;;;21.10;72.80;;;;;;4971040;28;19918;-67
2023/06/11 08:11:37;;;;;;;;;;;21.20;72.80;;;;;;4968118;28;19910;-67
2023/06/11 08:14:03;;;;;;;;;;;21.20;72.70;;;;;;4967846;28;19941;-67
2023/06/11 08:16:28;;;;;;;;;;;21.30;72.70;;;;;;4967801;28;19917;-67
2023/06/11 08:18:55;;;;;;;;;;;21.30;72.50;;;;;;4981908;28;19914;-68
2023/06/11 08:21:21;;;;;;;;;;;21.30;72.50;;;;;;4986536;28;19925;-67
2023/06/11 08:23:46;;;;;;;;;;;21.40;72.40;;;;;;4987132;28;19917;-67
2023/06/11 08:26:12;;;;;;;;;;;21.40;72.50;;;;;;4986913;28;20628;-67
2023/06/11 08:28:37;;;;;;;;;;;21.40;72.30;;;;;;4986956;28;19957;-67
2023/06/11 08:31:03;;;;;;;;;;;21.50;72.30;;;;;;4987169;28;19980;-67
2023/06/11 08:33:28;;;;;;;;;;;21.50;72.00;;;;;;4986876;28;19910;-67
2023/06/11 08:35:54;;;;;;;;;;;21.60;72.10;;;;;;4986718;28;19916;-67
2023/06/11 08:38:20;;;;;;;;;;;21.60;72.70;;;;;;4977745;28;20625;-67
2023/06/11 08:40:45;;;;;;;;;;;21.70;71.90;;;;;;4991126;28;20002;-67
2023/06/11 08:43:11;;;;;;;;;;;21.70;71.80;;;;;;4986070;28;19914;-67
2023/06/11 08:45:37;;;;;;;;;;;21.70;72.00;;;;;;4985711;28;19910;-67
2023/06/11 08:48:03;;;;;;;;;;;21.80;71.90;;;;;;4986242;28;19910;-67
2023/06/11 08:50:29;;;;;;;;;;;21.80;71.70;;;;;;4985928;28;19914;-67
2023/06/11 08:52:56;;;;;;;;;;;21.80;71.70;;;;;;4985970;28;19956;-67
2023/06/11 08:55:22;;;;;;;;;;;21.90;71.80;;;;;;4983562;28;19913;-67
2023/06/11 08:57:49;;;;;;;;;;;21.90;71.50;;;;;;4981990;28;19910;-67
2023/06/11 09:00:15;;;;;;;;;;;21.90;71.30;;;;;;4983800;28;19920;-67
2023/06/11 09:02:40;;;;;;;;;;;22.00;71.30;;;;;;4985627;28;19941;-67
2023/06/11 09:05:06;;;;;;;;;;;22.10;71.30;;;;;;4985117;28;19918;-67
2023/06/11 09:07:32;;;;;;;;;;;22.10;71.10;;;;;;4982200;28;19921;-67
2023/06/11 09:10:08;;;;;;;;;;;22.10;71.00;;;;;;4966396;28;20427;-67
2023/06/11 09:12:33;;;;;;;;;;;22.20;70.90;;;;;;5077119;28;20346;-68
2023/06/11 09:14:59;;;;;;;;;;;22.30;70.80;;;;;;5087881;28;19916;-67
2023/06/11 09:17:26;;;;;;;;;;;22.30;70.70;;;;;;5087792;28;19915;-67
2023/06/11 09:19:53;;;;;;;;;;;22.30;70.60;;;;;;5087890;28;19919;-67
2023/06/11 09:22:24;;;;;;;;;;;22.40;70.60;;;;;;5087829;28;19959;-67
2023/06/11 09:24:50;;;;;;;;;;;22.40;70.60;;;;;;5088026;28;19916;-67
2023/06/11 09:27:16;;;;;;;;;;;22.50;70.50;;;;;;5087791;28;19913;-67
2023/06/11 09:29:43;;;;;;;;;;;22.50;70.40;;;;;;5086248;28;19912;-67
2023/06/11 09:32:09;;;;;;;;;;;22.60;70.40;;;;;;4997357;28;19913;-67
2023/06/11 09:34:34;;;;;;;;;;;22.60;70.20;;;;;;4988857;28;19921;-67
2023/06/11 09:37:00;;;;;;;;;;;22.60;70.10;;;;;;4988856;28;20275;-67
2023/06/11 09:39:27;;;;;;;;;;;22.70;70.10;;;;;;4970629;28;19918;-67
2023/06/11 09:41:53;;;;;;;;;;;22.70;70.00;;;;;;4969581;28;19929;-67
2023/06/11 09:44:19;;;;;;;;;;;22.80;70.00;;;;;;4969204;28;19914;-68
2023/06/11 09:46:46;;;;;;;;;;;22.80;69.80;;;;;;4969234;28;19918;-67
2023/06/11 09:49:12;;;;;;;;;;;22.90;69.90;;;;;;4967808;28;19931;-67
2023/06/11 09:51:38;;;;;;;;;;;22.90;70.40;;;;;;5000895;28;19914;-67
2023/06/11 09:54:04;;;;;;;;;;;23.00;69.60;;;;;;5008069;28;19914;-67
2023/06/11 09:56:30;;;;;;;;;;;23.00;69.40;;;;;;4990658;28;19924;-67
2023/06/11 09:58:56;;;;;;;;;;;23.10;69.40;;;;;;4987924;28;19929;-67
2023/06/11 10:01:24;;;;;;;;;;;23.20;69.30;;;;;;4988413;28;19959;-67
2023/06/11 10:03:50;;;;;;;;;;;23.20;69.30;;;;;;4988298;28;19914;-67
2023/06/11 10:06:21;;;;;;;;;;;23.30;69.20;;;;;;4988526;28;19914;-67
2023/06/11 10:08:48;;;;;;;;;;;23.40;69.20;;;;;;4975494;28;19915;-67
2023/06/11 10:11:15;;;;;;;;;;;23.40;69.10;;;;;;4968977;28;20460;-67
2023/06/11 10:13:40;;;;;;;;;;;23.50;69.00;;;;;;4968743;28;19914;-67
2023/06/11 10:16:09;;;;;;;;;;;23.60;69.00;;;;;;4968639;28;19983;-67
2023/06/11 10:18:34;;;;;;;;;;;23.60;68.20;;;;;;4967244;28;20621;-67
2023/06/11 10:21:01;;;;;;;;;;;23.70;68.70;;;;;;4968849;28;19996;-67
2023/06/11 10:23:36;;;;;;;;;;;23.80;68.30;;;;;;4968565;28;20387;-67
2023/06/11 10:26:02;;;;;;;;;;;23.90;68.70;;;;;;4968917;28;19939;-67
2023/06/11 10:28:51;;;;;;;;;;;23.90;68.60;;;;;;4969539;28;19910;-67
2023/06/11 10:31:26;;;;;;;;;;;23.90;68.60;;;;;;4979907;28;19921;-67
2023/06/11 10:33:51;;;;;;;;;;;24.10;68.50;;;;;;4988489;28;20683;-67
2023/06/11 10:36:23;;;;;;;;;;;24.20;68.10;;;;;;5003473;28;20043;-67
2023/06/11 10:38:49;;;;;;;;;;;24.30;68.10;;;;;;4988029;28;19910;-67
2023/06/11 10:41:15;;;;;;;;;;;24.40;68.60;;;;;;4988103;28;19993;-67
2023/06/11 10:43:41;;;;;;;;;;;24.50;68.30;;;;;;4986799;28;19920;-67
2023/06/11 10:46:12;;;;;;;;;;;24.60;67.70;;;;;;5051900;28;19974;-67
2023/06/11 10:48:43;;;;;;;;;;;24.60;68.40;;;;;;5090184;28;20665;-67
2023/06/11 10:51:12;;;;;;;;;;;24.70;68.30;;;;;;5090342;28;19973;-67
2023/06/11 10:53:40;;;;;;;;;;;24.90;68.00;;;;;;5090034;28;19912;-67
2023/06/11 10:56:11;;;;;;;;;;;25.00;68.80;;;;;;5046012;28;19976;-67
2023/06/11 10:58:37;;;;;;;;;;;25.10;67.90;;;;;;4987001;28;19922;-67
2023/06/11 11:01:06;;;;;;;;;;;25.30;68.70;;;;;;4987448;28;20554;-67
2023/06/11 11:03:33;;;;;;;;;;;25.40;68.40;;;;;;4987166;28;19910;-67
2023/06/11 11:05:58;;;;;;;;;;;25.50;67.80;;;;;;4990031;28;19993;-67
2023/06/11 11:08:24;;;;;;;;;;;25.60;68.30;;;;;;5033146;28;20345;-67
2023/06/11 11:10:56;;;;;;;;;;;25.70;68.10;;;;;;4986326;28;19910;-67
2023/06/11 11:13:22;;;;;;;;;;;25.90;68.10;;;;;;4986237;28;20360;-67
2023/06/11 11:15:48;;;;;;;;;;;26.00;67.20;;;;;;4986281;28;19914;-67
2023/06/11 11:18:14;;;;;;;;;;;26.10;67.90;;;;;;4986127;28;19913;-67
2023/06/11 11:20:39;;;;;;;;;;;26.20;67.40;;;;;;4986364;28;19921;-67
2023/06/11 11:23:05;;;;;;;;;;;26.30;67.90;;;;;;4987204;28;20400;-67
2023/06/11 11:25:32;;;;;;;;;;;26.40;67.40;;;;;;4987071;28;20341;-67
2023/06/11 11:27:57;;;;;;;;;;;26.30;67.80;;;;;;4987303;28;19909;-67
2023/06/11 11:30:24;;;;;;;;;;;26.30;67.70;;;;;;4987092;28;19917;-67
2023/06/11 11:32:51;;;;;;;;;;;26.20;68.10;;;;;;4987426;28;20020;-67
2023/06/11 11:35:18;;;;;;;;;;;26.20;68.50;;;;;;4985256;28;20294;-67
2023/06/11 11:37:54;;;;;;;;;;;26.20;68.50;;;;;;4982445;28;20013;-67
2023/06/11 11:40:20;;;;;;;;;;;26.30;68.80;;;;;;4967770;28;20287;-67
2023/06/11 11:42:46;;;;;;;;;;;26.30;68.60;;;;;;4967754;28;19929;-67
2023/06/11 11:45:13;;;;;;;;;;;26.20;68.80;;;;;;4967432;28;19914;-67
2023/06/11 11:47:39;;;;;;;;;;;26.20;68.80;;;;;;4975169;28;20358;-67
2023/06/11 11:50:10;;;;;;;;;;;26.20;68.90;;;;;;5006769;28;19916;-67
2023/06/11 11:52:37;;;;;;;;;;;26.20;69.10;;;;;;5007197;28;20417;-67
2023/06/11 11:55:03;;;;;;;;;;;26.30;69.10;;;;;;5006331;28;19910;-67
2023/06/11 11:57:30;;;;;;;;;;;26.30;68.80;;;;;;4981112;28;19940;-67
2023/06/11 11:59:55;;;;;;;;;;;26.30;68.40;;;;;;4987301;28;19936;-67
2023/06/11 12:02:27;;;;;;;;;;;26.50;68.20;;;;;;4987614;28;19917;-67
2023/06/11 12:04:57;;;;;;;;;;;26.60;67.90;;;;;;4987432;28;19914;-67
2023/06/11 12:07:23;;;;;;;;;;;26.60;67.50;;;;;;4985662;28;19917;-67
2023/06/11 12:09:49;;;;;;;;;;;26.70;67.20;;;;;;4968214;28;19910;-67
2023/06/11 12:12:14;;;;;;;;;;;26.80;67.30;;;;;;4968103;28;19918;-66
2023/06/11 12:14:40;;;;;;;;;;;27.00;67.40;;;;;;4967654;28;19914;-67
2023/06/11 12:17:10;;;;;;;;;;;27.00;67.40;;;;;;4967871;28;19964;-66
2023/06/11 12:19:36;;;;;;;;;;;27.00;67.20;;;;;;4967807;28;20610;-66
2023/06/11 12:22:03;;;;;;;;;;;27.10;67.20;;;;;;4967871;28;19918;-67
2023/06/11 12:24:29;;;;;;;;;;;27.20;67.30;;;;;;4967981;28;19921;-67
2023/06/11 12:26:54;;;;;;;;;;;27.30;67.00;;;;;;4982795;28;19914;-67
2023/06/11 12:29:20;;;;;;;;;;;27.40;66.90;;;;;;4966488;28;19914;-67
2023/06/11 12:31:48;;;;;;;;;;;27.50;66.50;;;;;;4980964;28;20386;-66
2023/06/11 12:34:16;;;;;;;;;;;27.60;66.40;;;;;;4988884;28;19916;-66
2023/06/11 12:36:43;;;;;;;;;;;27.70;66.40;;;;;;4997344;28;19920;-67
2023/06/11 12:39:09;;;;;;;;;;;27.80;66.00;;;;;;4987006;28;19917;-66
2023/06/11 12:41:35;;;;;;;;;;;27.90;65.90;;;;;;4987129;28;19918;-66
2023/06/11 12:44:01;;;;;;;;;;;28.00;65.70;;;;;;4986826;28;20390;-66
2023/06/11 12:46:26;;;;;;;;;;;28.10;66.40;;;;;;4986939;28;20504;-66
2023/06/11 12:48:55;;;;;;;;;;;28.10;65.80;;;;;;4986823;28;20469;-66
2023/06/11 12:51:20;;;;;;;;;;;28.00;65.60;;;;;;4987217;28;19913;-66
2023/06/11 12:53:46;;;;;;;;;;;28.00;66.00;;;;;;4987133;28;19914;-66
2023/06/11 12:56:12;;;;;;;;;;;28.10;66.40;;;;;;4980826;28;20622;-66
2023/06/11 12:58:38;;;;;;;;;;;28.20;66.50;;;;;;4985113;28;19914;-67
2023/06/11 13:01:04;;;;;;;;;;;28.30;66.10;;;;;;4986819;28;20020;-66
2023/06/11 13:03:31;;;;;;;;;;;28.40;65.80;;;;;;4986911;28;20029;-66
2023/06/11 13:05:56;;;;;;;;;;;28.50;66.10;;;;;;5050149;28;19916;-66
2023/06/11 13:08:22;;;;;;;;;;;28.40;65.20;;;;;;5039345;28;19939;-66
2023/06/11 13:10:47;;;;;;;;;;;28.40;65.70;;;;;;4990336;28;19997;-66
2023/06/11 13:13:13;;;;;;;;;;;28.50;65.80;;;;;;4990225;28;19913;-66
2023/06/11 13:15:43;;;;;;;;;;;28.50;65.80;;;;;;4989844;28;19910;-67
2023/06/11 13:18:12;;;;;;;;;;;28.60;65.60;;;;;;4996932;28;20015;-66
2023/06/11 13:20:40;;;;;;;;;;;28.70;66.00;;;;;;5009432;28;20321;-66
2023/06/11 13:23:06;;;;;;;;;;;28.80;65.70;;;;;;5009553;28;19978;-66
2023/06/11 13:25:31;;;;;;;;;;;28.90;64.90;;;;;;5008283;28;20371;-66
2023/06/11 13:27:57;;;;;;;;;;;29.00;64.90;;;;;;5009665;28;19910;-67
2023/06/11 13:30:22;;;;;;;;;;;29.10;64.90;;;;;;5006337;28;20270;-66
2023/06/11 13:32:48;;;;;;;;;;;29.10;64.70;;;;;;4989957;28;19910;-66
2023/06/11 13:35:13;;;;;;;;;;;29.20;63.50;;;;;;4989594;28;20354;-66
2023/06/11 13:37:39;;;;;;;;;;;29.30;64.10;;;;;;4984274;28;19918;-67
2023/06/11 13:40:05;;;;;;;;;;;29.30;64.40;;;;;;4970276;28;20570;-66
2023/06/11 13:42:31;;;;;;;;;;;29.40;64.30;;;;;;4970258;28;19918;-66
2023/06/11 13:44:56;;;;;;;;;;;29.50;64.10;;;;;;4977427;28;19913;-66
2023/06/11 13:47:22;;;;;;;;;;;29.50;63.90;;;;;;5008793;28;19909;-67
2023/06/11 13:49:47;;;;;;;;;;;29.60;62.70;;;;;;5008215;28;19998;-67
2023/06/11 13:52:13;;;;;;;;;;;29.70;64.20;;;;;;5008405;28;19913;-67
2023/06/11 13:54:40;;;;;;;;;;;29.70;63.90;;;;;;5008371;28;19918;-66
2023/06/11 13:57:06;;;;;;;;;;;29.70;64.00;;;;;;4985928;28;20541;-67
2023/06/11 13:59:32;;;;;;;;;;;29.80;63.70;;;;;;4983517;28;19918;-67
2023/06/11 14:02:01;;;;;;;;;;;29.80;63.90;;;;;;4987726;28;19917;-67
2023/06/11 14:04:27;;;;;;;;;;;29.80;63.90;;;;;;4997587;28;19961;-66
2023/06/11 14:06:53;;;;;;;;;;;29.80;63.50;;;;;;5031657;28;19917;-67
2023/06/11 14:09:18;;;;;;;;;;;29.80;64.10;;;;;;4991236;28;19921;-67
2023/06/11 14:11:44;;;;;;;;;;;29.70;64.20;;;;;;4989350;28;20359;-67